Time;durP1;ratioP1;P1;durP2;ratioP2;P2;SDS_P1;SDS_P2;PMS_P1;PMS_P2;Temp;Humidity;BMP_temperature;BMP_pressure;BME280_temperature;BME280_humidity;BME280_pressure;Samples;Min_cycle;Max_cycle;Signal;HPM_P1;HPM_P2
2021/06/03 00:00:50;;;;;;;21.50;17.83;;;;;;;26.62;39.37;101103.47;5017141;28;20033;-92
2021/06/03 00:03:17;;;;;;;20.67;18.58;;;;;;;26.58;39.63;101105.50;5016925;28;20124;-94
2021/06/03 00:05:46;;;;;;;23.70;18.92;;;;;;;26.54;39.88;101097.94;5016864;28;20108;-93
2021/06/03 00:08:12;;;;;;;23.10;19.65;;;;;;;26.65;39.49;101099.84;5016994;28;20439;-93
2021/06/03 00:10:43;;;;;;;21.77;19.42;;;;;;;26.51;39.85;101100.75;5016928;28;20112;-93
2021/06/03 00:13:08;;;;;;;25.08;20.23;;;;;;;26.63;39.71;101099.47;5017316;28;20464;-94
2021/06/03 00:15:35;;;;;;;23.15;20.55;;;;;;;26.66;39.37;101107.03;5016681;28;20032;-91
2021/06/03 00:18:02;;;;;;;21.77;19.45;;;;;;;26.68;39.42;101097.03;5013094;28;20058;-92
2021/06/03 00:20:30;;;;;;;28.88;22.00;;;;;;;26.61;39.81;101107.50;5013511;28;20038;-95
2021/06/03 00:22:56;;;;;;;26.88;21.42;;;;;;;26.54;39.82;101103.53;5013682;28;20026;-95
2021/06/03 00:25:22;;;;;;;27.33;22.15;;;;;;;26.60;39.88;101112.31;5013551;28;20037;-90
2021/06/03 00:27:49;;;;;;;27.17;23.80;;;;;;;26.67;39.44;101112.22;5013640;28;20026;-92
2021/06/03 00:30:15;;;;;;;28.40;24.83;;;;;;;26.66;39.66;101121.03;5013736;28;20116;-93
2021/06/03 00:32:41;;;;;;;31.02;23.75;;;;;;;26.64;39.73;101117.88;5013361;28;20472;-91
2021/06/03 00:35:08;;;;;;;29.27;26.17;;;;;;;26.60;39.93;101117.91;5013702;28;20032;-92
2021/06/03 00:37:34;;;;;;;29.90;26.80;;;;;;;26.55;40.08;101116.34;5013364;28;20033;-93
2021/06/03 00:40:00;;;;;;;32.05;26.23;;;;;;;26.45;40.05;101114.44;5013855;28;20037;-91
2021/06/03 00:42:26;;;;;;;33.70;30.20;;;;;;;26.45;40.20;101117.25;5017510;28;20025;-91
2021/06/03 00:44:52;;;;;;;35.83;28.17;;;;;;;26.41;40.40;101113.66;5017110;28;20034;-90
2021/06/03 00:47:18;;;;;;;37.85;29.90;;;;;;;26.58;39.91;101116.72;5016791;28;20025;-91
2021/06/03 00:49:44;;;;;;;33.38;30.05;;;;;;;26.59;40.26;101118.31;5017031;28;20110;-96
2021/06/03 00:52:10;;;;;;;31.05;27.10;;;;;;;26.59;40.11;101107.09;5017243;28;20373;-94
2021/06/03 00:54:35;;;;;;;37.33;28.38;;;;;;;26.60;39.90;101114.28;5016853;28;20072;-90
2021/06/03 00:57:01;;;;;;;33.42;26.58;;;;;;;26.57;40.10;101112.31;5016750;28;20399;-93
2021/06/03 00:59:27;;;;;;;34.63;26.70;;;;;;;26.53;40.11;101112.38;5016541;28;20093;-93
2021/06/03 01:01:52;;;;;;;29.17;26.05;;;;;;;26.60;39.84;101114.28;5016739;28;20514;-91
2021/06/03 01:04:21;;;;;;;32.35;25.38;;;;;;;26.58;39.66;101113.91;5017007;28;20072;-91
2021/06/03 01:06:50;;;;;;;30.70;26.80;;;;;;;26.66;39.62;101104.22;5016713;28;20025;-91
2021/06/03 01:09:40;;;;;;;29.13;25.85;;;;;;;26.61;39.83;101104.69;5017051;28;20125;-93
2021/06/03 01:12:38;;;;;;;28.05;25.02;;;;;;;26.58;39.65;101102.72;5016445;28;20076;-92
2021/06/03 01:15:06;;;;;;;29.60;24.33;;;;;;;26.74;39.43;101094.53;5016816;28;20030;-92
2021/06/03 01:17:33;;;;;;;24.38;21.65;;;;;;;26.74;39.43;101094.53;5019371;28;20065;-90
2021/06/03 01:19:59;;;;;;;25.52;22.92;;;;;;;26.71;39.30;101090.56;5019573;28;20048;-91
2021/06/03 01:22:33;;;;;;;26.02;22.67;;;;;;;26.69;39.45;101100.63;5019614;28;20472;-91
2021/06/03 01:25:01;;;;;;;25.88;21.90;;;;;;;26.61;39.62;101094.28;5019741;28;20479;-92
2021/06/03 01:27:32;;;;;;;28.02;23.00;;;;;;;26.62;39.33;101081.84;5019565;28;20022;-93
2021/06/03 01:30:18;;;;;;;29.58;23.92;;;;;;;26.63;39.63;101088.25;5019522;28;20104;-91
2021/06/03 01:32:51;;;;;;;27.10;23.50;;;;;;;26.52;39.69;101094.72;5019025;28;20029;-92
2021/06/03 01:35:25;;;;;;;28.10;24.27;;;;;;;26.49;39.80;101091.97;5037399;28;20029;-91
2021/06/03 01:37:52;;;;;;;28.67;25.58;;;;;;;26.42;39.78;101097.63;5039371;28;20036;-95
2021/06/03 01:40:19;;;;;;;30.35;26.27;;;;;;;26.43;39.89;101102.81;5038988;28;20031;-92
2021/06/03 01:42:46;;;;;;;28.20;25.23;;;;;;;26.40;39.93;101095.25;5039202;28;20024;-94
2021/06/03 01:45:14;;;;;;;29.15;25.42;;;;;;;26.36;39.92;101093.66;5038696;28;20025;-93
2021/06/03 01:47:40;;;;;;;32.35;26.73;;;;;;;26.39;39.52;101101.28;5038245;28;20025;-95
2021/06/03 01:50:07;;;;;;;29.02;25.83;;;;;;;26.38;39.62;101100.47;5038604;28;20025;-92
2021/06/03 01:52:33;;;;;;;33.63;25.73;;;;;;;26.28;40.07;101093.72;5037883;28;20025;-91
2021/06/03 01:55:00;;;;;;;32.47;25.25;;;;;;;26.46;39.72;101096.41;5039344;28;20021;-94
2021/06/03 01:57:25;;;;;;;33.13;26.15;;;;;;;26.38;39.92;101094.84;5038840;28;20047;-95
2021/06/03 01:59:51;;;;;;;28.40;25.05;;;;;;;26.39;39.90;101093.66;5038712;28;20040;-93
2021/06/03 02:02:17;;;;;;;32.10;25.85;;;;;;;26.49;39.42;101095.56;5038573;28;20135;-90
2021/06/03 02:04:43;;;;;;;30.17;25.15;;;;;;;26.47;39.65;101089.59;5038656;28;20032;-90
2021/06/03 02:07:08;;;;;;;30.42;23.40;;;;;;;26.43;39.54;101097.22;5038885;28;20510;-95
2021/06/03 02:09:34;;;;;;;29.42;23.48;;;;;;;26.39;39.72;101102.06;5038657;28;20064;-92
2021/06/03 02:12:00;;;;;;;26.55;22.73;;;;;;;26.43;39.35;101108.44;5054914;28;20032;-92
2021/06/03 02:14:35;;;;;;;29.00;23.27;;;;;;;26.40;39.91;101117.66;5039032;28;20017;-94
2021/06/03 02:17:32;;;;;;;29.08;24.17;;;;;;;26.35;39.82;101111.69;5038987;28;20036;-93
2021/06/03 02:20:15;;;;;;;30.73;23.67;;;;;;;26.40;39.37;101109.28;5038436;28;20040;-95
2021/06/03 02:22:44;;;;;;;26.23;23.42;;;;;;;26.26;39.89;101115.75;5038863;28;20032;-92
2021/06/03 02:25:11;;;;;;;28.75;23.17;;;;;;;26.34;39.62;101116.47;5038896;28;20021;-92
2021/06/03 02:27:38;;;;;;;28.08;23.42;;;;;;;26.29;39.45;101122.50;5038322;28;20522;-93
2021/06/03 02:30:07;;;;;;;26.10;21.88;;;;;;;26.11;39.92;101128.25;5038090;28;20013;-94
2021/06/03 02:32:33;;;;;;;28.02;22.58;;;;;;;26.01;39.65;101126.31;5038034;28;20024;-92
2021/06/03 02:34:59;;;;;;;29.88;22.35;;;;;;;26.11;39.54;101124.66;5037833;28;20025;-91
2021/06/03 02:37:25;;;;;;;30.67;22.52;;;;;;;26.02;39.77;101127.91;5038048;28;20074;-91
2021/06/03 02:40:01;;;;;;;36.13;23.83;;;;;;;25.99;39.77;101126.72;5037763;28;20432;-92
2021/06/03 02:42:27;;;;;;;26.70;21.92;;;;;;;25.84;39.96;101128.00;5037644;28;20108;-92
2021/06/03 02:44:53;;;;;;;28.20;21.67;;;;;;;25.79;39.71;101128.44;5037526;28;20458;-95
2021/06/03 02:47:18;;;;;;;26.63;22.13;;;;;;;25.81;39.81;101122.44;5037965;28;20032;-95
2021/06/03 02:49:44;;;;;;;26.90;21.48;;;;;;;25.72;39.86;101120.09;5037687;28;20071;-93
2021/06/03 02:52:10;;;;;;;25.17;22.02;;;;;;;25.78;39.67;101124.06;5037863;28;20637;-93
2021/06/03 02:54:51;;;;;;;24.60;21.70;;;;;;;25.54;40.76;101125.72;5037398;28;20029;-92
2021/06/03 02:57:26;;;;;;;33.03;22.27;;;;;;;25.70;40.19;101122.47;5054344;28;20418;-93
2021/06/03 02:59:51;;;;;;;37.35;22.83;;;;;;;25.69;40.07;101126.44;5037296;28;20033;-94
2021/06/03 03:02:17;;;;;;;27.25;21.45;;;;;;;25.57;40.53;101129.72;5037532;28;20087;-94
2021/06/03 03:04:42;;;;;;;29.55;23.38;;;;;;;25.69;40.23;101116.09;5037313;28;20032;-92
2021/06/03 03:07:08;;;;;;;30.60;23.42;;;;;;;25.70;39.94;101122.47;5037743;28;20033;-93
2021/06/03 03:09:34;;;;;;;36.25;23.25;;;;;;;25.48;40.96;101120.97;5037307;28;20056;-89
2021/06/03 03:11:59;;;;;;;29.35;23.85;;;;;;;25.51;40.86;101117.34;5037741;28;20087;-93
2021/06/03 03:14:25;;;;;;;31.90;25.50;;;;;;;25.64;40.56;101124.09;5037389;28;20075;-93
2021/06/03 03:16:51;;;;;;;29.85;25.45;;;;;;;25.69;40.29;101116.09;5053971;28;20032;-93
2021/06/03 03:19:17;;;;;;;36.90;26.90;;;;;;;25.68;40.40;101128.44;5036960;28;20049;-93
2021/06/03 03:21:43;;;;;;;36.92;27.30;;;;;;;25.87;40.10;101132.00;5037277;28;20115;-94
2021/06/03 03:24:08;;;;;;;30.48;24.48;;;;;;;25.84;40.08;101130.81;5037138;28;20578;-95
2021/06/03 03:26:34;;;;;;;31.80;25.08;;;;;;;25.74;40.37;101126.06;5036964;28;20029;-93
2021/06/03 03:28:59;;;;;;;26.85;23.50;;;;;;;25.68;40.84;101145.25;5037353;28;20096;-93
2021/06/03 03:31:25;;;;;;;34.28;24.75;;;;;;;25.92;40.32;101139.97;5036910;28;20036;-92
2021/06/03 03:33:51;;;;;;;30.08;22.70;;;;;;;26.15;40.03;101145.03;5037067;28;20028;-93
2021/06/03 03:36:17;;;;;;;25.45;20.23;;;;;;;26.08;40.30;101143.09;5036984;28;20025;-93
2021/06/03 03:38:42;;;;;;;26.52;21.00;;;;;;;26.17;40.03;101142.63;5037089;28;20049;-94
2021/06/03 03:41:21;;;;;;;27.38;22.00;;;;;;;26.18;40.12;101142.22;5036785;28;20490;-92
2021/06/03 03:43:47;;;;;;;29.35;19.77;;;;;;;26.00;40.25;101142.34;5037001;28;20036;-93
2021/06/03 03:46:12;;;;;;;34.38;21.98;;;;;;;26.09;40.37;101147.47;5037094;28;20025;-93
2021/06/03 03:48:38;;;;;;;25.05;20.20;;;;;;;26.14;40.16;101138.63;5036700;28;20055;-93
2021/06/03 03:51:04;;;;;;;27.85;21.80;;;;;;;26.08;40.16;101147.88;5053212;28;20111;-93
2021/06/03 03:53:29;;;;;;;24.30;19.55;;;;;;;26.11;40.24;101149.84;5036869;28;20033;-93
2021/06/03 03:55:55;;;;;;;31.00;20.33;;;;;;;26.14;40.17;101146.22;5036710;28;20043;-93
2021/06/03 03:58:20;;;;;;;23.02;19.48;;;;;;;26.17;40.17;101149.03;5036989;28;20039;-93
2021/06/03 04:00:46;;;;;;;25.80;19.77;;;;;;;26.20;39.87;101150.19;5036458;28;20039;-92
2021/06/03 04:03:12;;;;;;;20.55;17.73;;;;;;;26.18;40.17;101155.41;5036787;28;20112;-93
2021/06/03 04:05:38;;;;;;;25.30;19.55;;;;;;;26.22;40.03;101147.78;5036643;28;20036;-93
2021/06/03 04:08:04;;;;;;;28.95;19.52;;;;;;;26.22;40.11;101144.97;5036406;28;20028;-92
2021/06/03 04:10:29;;;;;;;22.50;18.63;;;;;;;26.23;39.96;101152.19;5053026;28;20029;-92
2021/06/03 04:12:55;;;;;;;27.02;19.10;;;;;;;26.18;39.97;101153.41;5036919;28;20029;-94
2021/06/03 04:15:21;;;;;;;28.98;21.00;;;;;;;26.13;40.22;101148.22;5037604;28;20053;-93
2021/06/03 04:17:47;;;;;;;31.88;21.77;;;;;;;26.12;40.09;101154.25;5040266;28;20079;-94
2021/06/03 04:20:19;;;;;;;29.02;22.58;;;;;;;26.13;39.71;101155.84;5040484;28;20032;-92
2021/06/03 04:22:45;;;;;;;34.85;23.10;;;;;;;26.14;39.77;101158.22;5040522;28;20029;-93
2021/06/03 04:25:11;;;;;;;34.70;22.42;;;;;;;26.16;39.83;101161.44;5040163;28;20028;-92
2021/06/03 04:27:37;;;;;;;41.45;23.35;;;;;;;26.09;39.82;101160.69;5040428;28;20029;-92
2021/06/03 04:30:12;;;;;;;27.70;21.83;;;;;;;26.00;40.18;101161.13;5040270;28;20051;-91
2021/06/03 04:32:38;;;;;;;27.90;19.83;;;;;;;26.04;40.14;101155.50;5040365;28;20124;-92
2021/06/03 04:35:04;;;;;;;30.17;21.45;;;;;;;26.07;40.04;101163.06;5040230;28;20128;-93
2021/06/03 04:37:30;;;;;;;41.20;22.55;;;;;;;25.98;40.16;101144.72;5040309;28;20032;-92
2021/06/03 04:39:56;;;;;;;27.55;20.33;;;;;;;26.09;39.85;101167.06;5039906;28;20410;-93
2021/06/03 04:42:21;;;;;;;30.92;21.05;;;;;;;26.14;39.83;101165.81;5040056;28;20115;-92
2021/06/03 04:44:47;;;;;;;31.13;20.60;;;;;;;26.15;39.86;101170.25;5039823;28;20021;-94
2021/06/03 04:47:12;;;;;;;25.83;20.17;;;;;;;26.16;39.64;101163.44;5039977;28;20078;-92
2021/06/03 04:49:38;;;;;;;38.75;22.27;;;;;;;25.82;40.50;101168.81;5040135;28;20021;-93
2021/06/03 04:54:49;;;;;;;26.75;19.27;;;;;;;25.97;40.08;101165.53;5057957;28;20028;-93
2021/06/03 04:57:14;;;;;;;35.67;20.90;;;;;;;26.03;40.08;101165.09;5039677;28;20021;-92
2021/06/03 04:59:40;;;;;;;44.90;26.45;;;;;;;25.85;40.82;101179.22;5039568;28;20043;-95
2021/06/03 05:02:06;;;;;;;40.08;26.08;;;;;;;25.90;40.19;101182.34;5039940;28;20364;-91
2021/06/03 05:04:32;;;;;;;36.15;25.42;;;;;;;25.90;40.58;101168.38;5039876;28;20064;-92
2021/06/03 05:06:58;;;;;;;49.42;26.63;;;;;;;25.93;40.61;101181.56;5039705;28;20039;-92
2021/06/03 05:09:23;;;;;;;42.03;26.00;;;;;;;25.90;40.36;101184.38;5056143;28;20033;-94
2021/06/03 05:11:49;;;;;;;38.17;26.50;;;;;;;25.99;40.16;101179.91;5039668;28;20055;-92
2021/06/03 05:14:14;;;;;;;43.75;27.42;;;;;;;26.05;40.14;101168.28;5039595;28;20525;-92
2021/06/03 05:16:41;;;;;;;37.47;25.58;;;;;;;26.09;40.36;101161.47;5039487;28;20033;-93
2021/06/03 05:19:06;;;;;;;45.80;29.50;;;;;;;26.05;40.51;101171.09;5035667;28;20056;-92
2021/06/03 05:21:32;;;;;;;49.40;27.83;;;;;;;26.02;40.83;101169.13;5036091;28;20472;-92
2021/06/03 05:23:58;;;;;;;45.33;26.90;;;;;;;26.27;40.30;101175.34;5035993;28;20033;-93
2021/06/03 05:26:23;;;;;;;43.33;27.10;;;;;;;26.34;39.95;101178.09;5035535;28;20025;-93
2021/06/03 05:28:49;;;;;;;41.53;28.67;;;;;;;26.34;40.26;101183.72;5035900;28;20033;-92
2021/06/03 05:31:14;;;;;;;61.30;30.05;;;;;;;26.22;40.48;101187.81;5052337;28;20025;-92
2021/06/03 05:33:40;;;;;;;43.33;26.52;;;;;;;26.49;39.68;101199.25;5052512;28;20488;-93
2021/06/03 05:36:06;;;;;;;55.65;27.67;;;;;;;26.30;40.31;101202.56;5035774;28;20040;-94
2021/06/03 05:38:32;;;;;;;38.75;24.42;;;;;;;26.39;40.06;101210.53;5036112;28;20040;-92
2021/06/03 05:40:57;;;;;;;43.22;26.70;;;;;;;26.34;40.18;101213.72;5052330;28;20037;-94
2021/06/03 05:43:23;;;;;;;43.55;27.40;;;;;;;26.38;40.10;101206.13;5052100;28;20038;-93
2021/06/03 05:45:49;;;;;;;42.33;25.15;;;;;;;26.34;40.32;101217.31;5036134;28;20033;-95
2021/06/03 05:48:14;;;;;;;44.90;26.80;;;;;;;26.37;40.29;101216.50;5036178;28;20021;-93
2021/06/03 05:50:40;;;;;;;42.55;25.83;;;;;;;26.51;40.09;101224.06;5035940;28;20060;-93
2021/06/03 05:53:06;;;;;;;32.50;22.30;;;;;;;26.53;39.99;101224.47;5035382;28;20056;-93
2021/06/03 05:55:31;;;;;;;33.22;23.52;;;;;;;26.55;40.33;101217.22;5035546;28;20029;-93
2021/06/03 05:57:57;;;;;;;43.92;24.63;;;;;;;26.67;40.13;101223.53;5035746;28;20087;-91
2021/06/03 06:00:29;;;;;;;36.33;25.42;;;;;;;26.69;40.20;101221.13;5035685;28;20124;-93
2021/06/03 06:03:10;;;;;;;32.63;23.48;;;;;;;26.72;40.17;101237.13;5035300;28;20067;-93
2021/06/03 06:08:19;;;;;;;33.80;21.98;;;;;;;26.71;40.14;101227.13;5036942;28;20028;-95
2021/06/03 06:10:45;;;;;;;31.50;21.17;;;;;;;26.80;40.05;101224.63;5035462;28;20029;-92
2021/06/03 06:13:12;;;;;;;28.67;21.60;;;;;;;26.86;40.14;101228.59;5051871;28;20125;-93
2021/06/03 06:15:38;;;;;;;35.88;20.98;;;;;;;27.02;39.67;101234.47;5035250;28;20033;-94
2021/06/03 06:18:10;;;;;;;49.10;23.27;;;;;;;26.91;39.73;101232.97;5035303;28;20041;-92
2021/06/03 06:20:38;;;;;;;23.48;18.60;;;;;;;27.17;39.38;101228.75;5035262;28;20450;-93
2021/06/03 06:23:03;;;;;;;24.00;18.60;;;;;;;27.03;39.37;101224.03;5034956;28;20029;-92
2021/06/03 06:25:38;;;;;;;28.08;17.40;;;;;;;27.05;39.18;101233.69;5052098;28;20032;-93
2021/06/03 06:28:04;;;;;;;21.50;15.80;;;;;;;26.94;39.72;101232.13;5035679;28;20029;-95
2021/06/03 06:30:31;;;;;;;26.05;15.55;;;;;;;26.93;39.77;101236.94;5035554;28;20041;-91
2021/06/03 06:32:57;;;;;;;18.42;14.57;;;;;;;26.99;39.82;101234.50;5034876;28;20025;-90
2021/06/03 06:35:23;;;;;;;22.10;14.55;;;;;;;27.16;39.47;101242.00;5034998;28;20036;-87
2021/06/03 06:37:49;;;;;;;15.40;12.15;;;;;;;27.21;39.38;101247.16;5035463;28;20029;-93
2021/06/03 06:40:14;;;;;;;29.70;13.40;;;;;;;27.10;39.37;101249.25;5051320;28;20380;-85
2021/06/03 06:42:40;;;;;;;14.73;10.23;;;;;;;27.06;39.31;101243.69;5024207;28;20192;-93
2021/06/03 06:45:07;;;;;;;18.92;10.88;;;;;;;26.95;39.30;101251.34;5033411;28;20025;-89
2021/06/03 06:47:35;;;;;;;19.63;10.30;;;;;;;26.94;39.24;101248.97;5031266;28;20116;-85
2021/06/03 06:50:05;;;;;;;14.25;9.27;;;;;;;26.96;39.21;101252.94;5028774;28;20033;-94
2021/06/03 06:52:30;;;;;;;15.02;9.77;;;;;;;27.09;38.93;101251.25;5033802;28;20029;-90
2021/06/03 06:54:56;;;;;;;11.30;8.70;;;;;;;27.23;38.67;101263.56;5035669;28;20655;-94
2021/06/03 06:57:24;;;;;;;13.23;9.95;;;;;;;27.07;38.82;101259.31;5025840;28;20021;-86
2021/06/03 06:59:50;;;;;;;13.60;9.80;;;;;;;27.25;38.32;101266.75;5029723;28;20029;-90
2021/06/03 07:02:15;;;;;;;13.73;10.13;;;;;;;27.34;37.97;101262.25;5017595;28;20137;-86
2021/06/03 07:04:41;;;;;;;17.27;9.60;;;;;;;27.30;37.99;101260.69;5027932;28;20022;-88
2021/06/03 07:07:06;;;;;;;19.42;10.82;;;;;;;27.22;38.22;101271.19;5027174;28;20026;-87
2021/06/03 07:09:32;;;;;;;16.88;9.23;;;;;;;27.23;37.97;101280.41;5031986;28;20084;-80
2021/06/03 07:11:58;;;;;;;16.90;9.48;;;;;;;27.38;37.88;101273.44;5033308;28;20029;-87
2021/06/03 07:14:23;;;;;;;14.27;9.80;;;;;;;27.37;37.59;101267.03;5025402;28;20108;-86
2021/06/03 07:16:49;;;;;;;19.65;10.73;;;;;;;27.42;37.89;101273.41;5019045;28;20093;-90
2021/06/03 07:19:14;;;;;;;21.75;11.85;;;;;;;27.22;38.05;101281.63;5017801;28;20563;-86
2021/06/03 07:21:40;;;;;;;16.23;8.73;;;;;;;27.41;37.50;101272.59;5017783;28;20056;-91
2021/06/03 07:24:07;;;;;;;24.63;10.07;;;;;;;27.18;37.70;101275.22;5017588;28;20029;-90
2021/06/03 07:26:32;;;;;;;17.80;9.95;;;;;;;27.20;37.24;101284.03;5016653;28;20017;-86
2021/06/03 07:29:03;;;;;;;15.77;10.05;;;;;;;27.36;37.17;101275.88;5033150;28;20416;-89
2021/06/03 07:31:29;;;;;;;20.35;9.40;;;;;;;27.37;36.94;101285.88;5033600;28;20124;-92
2021/06/03 07:33:55;;;;;;;13.15;8.23;;;;;;;27.40;36.68;101275.84;5033281;28;20025;-92
2021/06/03 07:36:21;;;;;;;13.55;8.30;;;;;;;27.60;36.58;101274.03;5017000;28;20374;-89
2021/06/03 07:38:46;;;;;;;22.50;11.02;;;;;;;27.67;36.28;101284.41;5014200;28;20030;-88
2021/06/03 07:41:14;;;;;;;17.67;8.57;;;;;;;27.66;36.50;101283.59;5021864;28;20025;-91
2021/06/03 07:43:40;;;;;;;13.70;8.35;;;;;;;27.91;36.18;101280.53;5032905;28;20044;-88
2021/06/03 07:46:13;;;;;;;25.30;10.98;;;;;;;27.82;36.15;101291.47;5033114;28;20029;-89
2021/06/03 07:48:39;;;;;;;29.30;11.25;;;;;;;27.94;35.84;101302.16;5033478;28;20052;-89
2021/06/03 07:51:04;;;;;;;14.57;9.60;;;;;;;28.07;35.89;101303.19;5031679;28;20127;-92
2021/06/03 07:53:31;;;;;;;20.65;10.65;;;;;;;28.09;35.86;101299.97;5013754;28;20038;-95
2021/06/03 07:55:57;;;;;;;22.65;11.35;;;;;;;28.00;36.02;101306.09;5028430;28;20366;-92
2021/06/03 07:58:23;;;;;;;62.40;55.78;;;;;;;28.02;36.09;101312.06;5032945;28;20049;-92
2021/06/03 08:00:49;;;;;;;24.58;11.60;;;;;;;27.88;36.34;101313.03;5020995;28;20511;-90
2021/06/03 08:03:15;;;;;;;16.33;11.25;;;;;;;28.06;36.11;101312.84;5014705;28;20540;-87
2021/06/03 08:05:41;;;;;;;17.65;10.80;;;;;;;28.14;36.01;101308.72;5012292;28;20057;-89
2021/06/03 08:08:07;;;;;;;14.15;9.88;;;;;;;28.15;36.04;101315.16;5028360;28;20021;-87
2021/06/03 08:10:38;;;;;;;16.77;9.77;;;;;;;28.18;35.83;101320.72;5030836;28;20032;-87
2021/06/03 08:13:05;;;;;;;19.77;10.15;;;;;;;28.09;35.90;101312.00;5031685;28;20399;-88
2021/06/03 08:15:32;;;;;;;16.10;7.85;;;;;;;28.22;35.56;101322.69;5046546;28;20031;-91
2021/06/03 08:17:58;;;;;;;20.38;8.90;;;;;;;28.30;35.00;101322.22;5033723;28;20041;-92
2021/06/03 08:20:36;;;;;;;12.25;7.68;;;;;;;28.12;34.60;101328.03;5032870;28;20064;-92
2021/06/03 08:23:04;;;;;;;15.13;7.13;;;;;;;28.30;34.39;101330.63;5012544;28;20030;-91
2021/06/03 08:25:31;;;;;;;19.45;8.55;;;;;;;28.41;34.44;101324.88;5013611;28;20026;-90
2021/06/03 08:27:56;;;;;;;13.10;7.05;;;;;;;28.63;34.11;101323.34;5031763;28;20025;-89
2021/06/03 08:30:22;;;;;;;14.85;7.38;;;;;;;28.68;34.02;101320.09;5031878;28;20036;-88
2021/06/03 08:32:50;;;;;;;14.15;7.55;;;;;;;28.69;33.91;101321.66;5032449;28;20025;-90
2021/06/03 08:35:18;;;;;;;15.63;7.82;;;;;;;28.85;33.54;101329.47;5030432;28;20673;-91
2021/06/03 08:37:50;;;;;;;23.73;7.75;;;;;;;28.96;33.45;101330.16;5027806;28;20017;-83
2021/06/03 08:40:21;;;;;;;10.23;6.50;;;;;;;29.01;32.79;101324.03;5025065;28;20805;-82
2021/06/03 08:42:50;;;;;;;13.95;6.63;;;;;;;29.12;32.82;101321.06;5030950;28;20029;-83
2021/06/03 08:45:17;;;;;;;14.65;7.05;;;;;;;29.13;32.81;101325.44;5029570;28;20025;-87
2021/06/03 08:47:43;;;;;;;13.23;7.20;;;;;;;29.10;32.50;101331.94;5030727;28;20049;-85
2021/06/03 08:50:09;;;;;;;11.20;6.22;;;;;;;29.34;32.08;101338.38;5027621;28;20130;-83
2021/06/03 08:52:34;;;;;;;9.57;7.07;;;;;;;29.25;32.50;101332.50;5029401;28;20607;-83
2021/06/03 08:55:04;;;;;;;12.90;7.85;;;;;;;29.31;31.72;101327.97;5029559;28;20104;-82
2021/06/03 08:57:30;;;;;;;13.25;8.43;;;;;;;29.46;31.87;101334.13;5037756;28;20021;-82
2021/06/03 08:59:55;;;;;;;12.48;8.63;;;;;;;29.65;31.70;101330.63;5025197;28;20090;-83
2021/06/03 09:02:21;;;;;;;16.40;9.00;;;;;;;29.84;31.48;101335.47;5016999;28;20022;-83
2021/06/03 09:04:46;;;;;;;13.55;7.75;;;;;;;30.10;31.47;101338.63;5018457;28;20034;-84
2021/06/03 09:07:35;;;;;;;12.68;6.97;;;;;;;30.38;31.24;101340.88;5016788;28;20033;-83
2021/06/03 09:10:31;;;;;;;9.23;6.65;;;;;;;30.44;30.56;101345.97;5046484;28;20029;-85
2021/06/03 09:13:14;;;;;;;11.27;6.35;;;;;;;30.63;29.90;101337.50;5032188;28;20048;-85
2021/06/03 09:15:48;;;;;;;14.65;7.05;;;;;;;30.23;31.06;101342.41;5029749;28;20057;-84
2021/06/03 09:18:15;;;;;;;11.32;5.50;;;;;;;30.03;31.23;101339.53;5032588;28;20411;-84
2021/06/03 09:20:44;;;;;;;12.20;5.22;;;;;;;29.70;32.07;101349.84;5032532;28;20480;-83
2021/06/03 09:23:27;;;;;;;18.23;7.25;;;;;;;29.80;31.28;101357.28;5032576;28;20037;-84
2021/06/03 09:25:53;;;;;;;13.93;6.15;;;;;;;29.64;31.58;101351.56;5033367;28;20557;-83
2021/06/03 09:28:21;;;;;;;13.60;6.25;;;;;;;29.78;31.77;101356.94;5032272;28;20063;-83
2021/06/03 09:31:01;;;;;;;8.50;5.40;;;;;;;29.73;32.13;101354.59;5033233;28;20033;-81
2021/06/03 09:33:47;;;;;;;12.02;5.65;;;;;;;29.77;32.32;101354.53;5032864;28;20120;-84
2021/06/03 09:36:20;;;;;;;13.60;5.63;;;;;;;30.11;32.29;101351.50;5023137;28;20108;-82
2021/06/03 09:39:17;;;;;;;14.80;6.07;;;;;;;30.03;31.92;101352.84;5026139;28;20037;-83
2021/06/03 09:41:59;;;;;;;13.73;4.97;;;;;;;29.88;32.49;101349.50;5030493;28;20484;-85
2021/06/03 09:44:38;;;;;;;17.75;5.80;;;;;;;29.82;32.21;101363.28;5031590;28;20361;-82
2021/06/03 09:47:10;;;;;;;12.98;5.15;;;;;;;30.13;31.87;101360.31;5026431;28;20083;-83
2021/06/03 09:49:38;;;;;;;13.25;5.63;;;;;;;30.10;31.61;101366.81;5022911;28;20035;-83
2021/06/03 09:52:16;;;;;;;11.82;5.45;;;;;;;29.77;31.68;101360.94;5020535;28;20092;-83
2021/06/03 09:54:48;;;;;;;10.80;5.28;;;;;;;29.55;31.78;101354.13;5020919;28;20032;-84
2021/06/03 09:57:13;;;;;;;11.13;5.72;;;;;;;30.04;31.32;101362.88;5023083;28;20025;-81
2021/06/03 09:59:45;;;;;;;11.02;4.88;;;;;;;30.26;31.06;101369.72;5019346;28;20033;-82
2021/06/03 10:02:15;;;;;;;15.45;5.00;;;;;;;30.59;30.51;101364.97;5022895;28;20030;-83
2021/06/03 10:04:42;;;;;;;8.23;4.35;;;;;;;30.43;30.60;101364.13;5023107;28;20033;-82
2021/06/03 10:07:35;;;;;;;11.13;4.63;;;;;;;30.74;29.74;101359.84;5025875;28;20038;-83
2021/06/03 10:14:37;;;;;;;50.45;8.45;;;;;;;30.30;29.69;101369.63;5007248;28;20084;-84
2021/06/03 10:18:29;;;;;;;13.93;4.60;;;;;;;30.54;29.33;101373.97;4942275;29;20484;-83
2021/06/03 10:22:07;;;;;;;20.02;5.55;;;;;;;30.33;29.15;101369.56;4932968;29;20203;-83
2021/06/03 10:24:53;;;;;;;15.75;4.85;;;;;;;30.65;29.43;101370.91;4863431;29;20411;-84
2021/06/03 10:27:21;;;;;;;8.30;3.70;;;;;;;31.09;29.27;101366.69;4917946;29;20127;-83
2021/06/03 10:29:50;;;;;;;13.77;4.38;;;;;;;31.13;29.49;101370.19;5009902;28;20626;-85
2021/06/03 10:32:18;;;;;;;11.20;4.85;;;;;;;31.23;29.34;101367.63;5021543;28;20503;-84
2021/06/03 10:34:44;;;;;;;6.10;2.90;;;;;;;31.18;28.87;101371.72;5025293;28;20129;-82
2021/06/03 10:37:13;;;;;;;8.55;3.78;;;;;;;31.55;28.32;101372.44;5018959;28;20088;-84
2021/06/03 10:39:41;;;;;;;10.27;4.13;;;;;;;31.19;28.66;101376.13;5014803;28;20037;-85
2021/06/03 10:42:10;;;;;;;11.07;5.43;;;;;;;31.40;28.57;101370.00;5020659;28;20153;-86
2021/06/03 10:44:36;;;;;;;10.00;2.60;;;;;;;31.53;28.59;101374.94;5043741;28;20610;-84
2021/06/03 10:47:02;;;;;;;10.63;3.58;;;;;;;31.92;27.93;101365.44;5010265;28;20128;-84
2021/06/03 10:49:31;;;;;;;11.35;3.70;;;;;;;31.81;28.00;101354.41;5011022;28;20037;-84
2021/06/03 10:51:59;;;;;;;8.25;3.35;;;;;;;31.90;27.83;101357.41;5010328;28;20030;-83
2021/06/03 10:54:40;;;;;;;9.57;3.20;;;;;;;31.99;27.80;101356.75;5011725;28;20134;-85
2021/06/03 10:57:06;;;;;;;7.22;2.97;;;;;;;32.22;27.35;101358.53;5010035;28;20492;-80
2021/06/03 10:59:32;;;;;;;13.75;3.85;;;;;;;32.53;27.14;101361.69;5010550;28;20448;-83
2021/06/03 11:01:59;;;;;;;14.27;4.53;;;;;;;32.65;27.11;101368.59;5012965;28;20064;-81
2021/06/03 11:04:29;;;;;;;12.30;4.20;;;;;;;32.77;26.84;101365.78;5012180;28;20476;-81
2021/06/03 11:06:55;;;;;;;9.82;3.40;;;;;;;32.78;26.96;101355.25;5018239;28;20022;-82
2021/06/03 11:09:36;;;;;;;8.10;3.22;;;;;;;32.81;25.89;101360.81;5033176;28;20087;-82
2021/06/03 11:12:08;;;;;;;8.20;3.55;;;;;;;32.81;26.25;101366.47;5032717;28;20537;-82
2021/06/03 11:15:02;;;;;;;10.38;3.28;;;;;;;33.00;26.33;101361.84;5032820;28;20029;-82
2021/06/03 11:17:56;;;;;;;15.02;3.33;;;;;;;32.16;27.24;101354.66;5035028;28;20033;-82
2021/06/03 11:20:46;;;;;;;8.90;3.38;;;;;;;32.55;26.46;101362.81;5034554;28;20045;-82
2021/06/03 11:23:34;;;;;;;13.55;4.28;;;;;;;32.56;27.24;101372.09;5005689;28;20044;-81
2021/06/03 11:26:01;;;;;;;5.35;2.60;;;;;;;32.99;26.42;101362.31;5015246;28;20392;-82
2021/06/03 11:28:27;;;;;;;9.73;2.53;;;;;;;32.85;26.39;101360.72;5032733;28;20033;-82
2021/06/03 11:30:54;;;;;;;10.10;2.80;;;;;;;32.77;26.56;101367.81;5015057;28;20555;-82